sensor_id;sensor_type;location;lat;lon;timestamp;P1;durP1;ratioP1;P2;durP2;ratioP2
11338;SDS011;5724;42.684;23.252;2023-12-07T00:01:54;27.97;;;22.70;;
11338;SDS011;5724;42.684;23.252;2023-12-07T00:04:39;30.40;;;24.80;;
11338;SDS011;5724;42.684;23.252;2023-12-07T00:07:25;31.13;;;24.07;;
11338;SDS011;5724;42.684;23.252;2023-12-07T00:10:11;30.13;;;23.90;;
11338;SDS011;5724;42.684;23.252;2023-12-07T00:12:57;33.53;;;25.70;;
11338;SDS011;5724;42.684;23.252;2023-12-07T00:15:43;42.13;;;26.37;;
11338;SDS011;5724;42.684;23.252;2023-12-07T00:18:29;46.70;;;27.60;;
11338;SDS011;5724;42.684;23.252;2023-12-07T00:21:14;39.53;;;27.47;;
11338;SDS011;5724;42.684;23.252;2023-12-07T00:24:00;43.30;;;27.70;;
11338;SDS011;5724;42.684;23.252;2023-12-07T00:26:48;39.20;;;26.37;;
11338;SDS011;5724;42.684;23.252;2023-12-07T00:29:36;38.87;;;27.13;;
11338;SDS011;5724;42.684;23.252;2023-12-07T00:32:23;35.87;;;26.10;;
11338;SDS011;5724;42.684;23.252;2023-12-07T00:35:12;33.70;;;24.60;;
11338;SDS011;5724;42.684;23.252;2023-12-07T00:37:58;37.53;;;26.47;;
11338;SDS011;5724;42.684;23.252;2023-12-07T00:40:44;36.90;;;25.67;;
11338;SDS011;5724;42.684;23.252;2023-12-07T00:43:30;43.93;;;27.27;;
11338;SDS011;5724;42.684;23.252;2023-12-07T00:46:16;44.90;;;27.27;;
11338;SDS011;5724;42.684;23.252;2023-12-07T00:49:01;50.83;;;29.03;;
11338;SDS011;5724;42.684;23.252;2023-12-07T00:51:47;46.77;;;28.40;;
11338;SDS011;5724;42.684;23.252;2023-12-07T00:54:33;39.33;;;26.30;;
11338;SDS011;5724;42.684;23.252;2023-12-07T00:57:19;41.77;;;26.90;;
11338;SDS011;5724;42.684;23.252;2023-12-07T01:00:05;40.17;;;26.87;;
11338;SDS011;5724;42.684;23.252;2023-12-07T01:02:51;43.37;;;27.10;;
11338;SDS011;5724;42.684;23.252;2023-12-07T01:05:37;44.40;;;27.77;;
11338;SDS011;5724;42.684;23.252;2023-12-07T01:08:23;44.07;;;28.20;;
11338;SDS011;5724;42.684;23.252;2023-12-07T01:11:09;44.53;;;28.73;;
11338;SDS011;5724;42.684;23.252;2023-12-07T01:13:54;40.30;;;27.27;;
11338;SDS011;5724;42.684;23.252;2023-12-07T01:16:40;43.00;;;28.20;;
11338;SDS011;5724;42.684;23.252;2023-12-07T01:19:26;45.07;;;27.33;;
11338;SDS011;5724;42.684;23.252;2023-12-07T01:22:12;44.60;;;27.63;;
11338;SDS011;5724;42.684;23.252;2023-12-07T01:24:54;42.73;;;27.97;;
11338;SDS011;5724;42.684;23.252;2023-12-07T01:27:20;45.57;;;31.50;;
11338;SDS011;5724;42.684;23.252;2023-12-07T01:29:45;46.37;;;31.07;;
11338;SDS011;5724;42.684;23.252;2023-12-07T01:32:31;44.27;;;29.47;;
11338;SDS011;5724;42.684;23.252;2023-12-07T01:35:17;44.47;;;28.37;;
11338;SDS011;5724;42.684;23.252;2023-12-07T01:38:03;39.70;;;26.60;;
11338;SDS011;5724;42.684;23.252;2023-12-07T01:40:49;37.00;;;26.67;;
11338;SDS011;5724;42.684;23.252;2023-12-07T01:43:35;39.03;;;25.50;;
11338;SDS011;5724;42.684;23.252;2023-12-07T01:46:21;38.67;;;24.47;;
11338;SDS011;5724;42.684;23.252;2023-12-07T01:49:07;37.47;;;25.33;;
11338;SDS011;5724;42.684;23.252;2023-12-07T01:51:53;40.90;;;26.87;;
11338;SDS011;5724;42.684;23.252;2023-12-07T01:54:39;34.30;;;24.77;;
11338;SDS011;5724;42.684;23.252;2023-12-07T01:57:25;38.03;;;26.93;;
11338;SDS011;5724;42.684;23.252;2023-12-07T02:00:12;37.70;;;25.43;;
11338;SDS011;5724;42.684;23.252;2023-12-07T02:02:59;35.60;;;26.03;;
11338;SDS011;5724;42.684;23.252;2023-12-07T02:05:48;34.60;;;24.53;;
11338;SDS011;5724;42.684;23.252;2023-12-07T02:08:34;36.27;;;25.70;;
11338;SDS011;5724;42.684;23.252;2023-12-07T02:11:21;35.70;;;25.77;;
11338;SDS011;5724;42.684;23.252;2023-12-07T02:14:06;32.00;;;23.40;;
11338;SDS011;5724;42.684;23.252;2023-12-07T02:16:54;32.93;;;23.43;;
11338;SDS011;5724;42.684;23.252;2023-12-07T02:23:09;31.80;;;24.30;;
11338;SDS011;5724;42.684;23.252;2023-12-07T02:29:34;28.77;;;22.87;;
11338;SDS011;5724;42.684;23.252;2023-12-07T02:32:20;28.07;;;21.97;;
11338;SDS011;5724;42.684;23.252;2023-12-07T02:35:06;29.73;;;22.23;;
11338;SDS011;5724;42.684;23.252;2023-12-07T02:37:53;29.90;;;21.87;;
11338;SDS011;5724;42.684;23.252;2023-12-07T02:40:40;30.00;;;22.07;;
11338;SDS011;5724;42.684;23.252;2023-12-07T02:43:26;28.20;;;20.87;;
11338;SDS011;5724;42.684;23.252;2023-12-07T02:46:12;24.70;;;18.70;;
11338;SDS011;5724;42.684;23.252;2023-12-07T02:48:58;23.57;;;18.97;;
11338;SDS011;5724;42.684;23.252;2023-12-07T02:51:44;26.53;;;20.07;;
11338;SDS011;5724;42.684;23.252;2023-12-07T02:54:30;27.37;;;20.53;;
11338;SDS011;5724;42.684;23.252;2023-12-07T02:57:16;23.97;;;19.33;;
11338;SDS011;5724;42.684;23.252;2023-12-07T03:00:02;23.97;;;18.67;;
11338;SDS011;5724;42.684;23.252;2023-12-07T03:02:55;23.40;;;18.90;;
11338;SDS011;5724;42.684;23.252;2023-12-07T03:05:41;25.00;;;19.40;;
11338;SDS011;5724;42.684;23.252;2023-12-07T03:08:26;22.10;;;18.80;;
11338;SDS011;5724;42.684;23.252;2023-12-07T03:11:13;23.40;;;18.50;;
11338;SDS011;5724;42.684;23.252;2023-12-07T03:13:59;23.57;;;19.97;;
11338;SDS011;5724;42.684;23.252;2023-12-07T03:16:45;17.60;;;14.80;;
11338;SDS011;5724;42.684;23.252;2023-12-07T03:19:31;21.03;;;16.90;;
11338;SDS011;5724;42.684;23.252;2023-12-07T03:22:16;20.83;;;17.30;;
11338;SDS011;5724;42.684;23.252;2023-12-07T03:25:02;19.27;;;16.23;;
11338;SDS011;5724;42.684;23.252;2023-12-07T03:27:48;19.40;;;16.43;;
11338;SDS011;5724;42.684;23.252;2023-12-07T03:30:34;20.90;;;17.03;;
11338;SDS011;5724;42.684;23.252;2023-12-07T03:33:20;20.80;;;16.80;;
11338;SDS011;5724;42.684;23.252;2023-12-07T03:36:06;19.50;;;16.17;;
11338;SDS011;5724;42.684;23.252;2023-12-07T03:38:52;22.97;;;17.67;;
11338;SDS011;5724;42.684;23.252;2023-12-07T03:41:38;21.17;;;17.87;;
11338;SDS011;5724;42.684;23.252;2023-12-07T03:44:24;21.20;;;17.73;;
11338;SDS011;5724;42.684;23.252;2023-12-07T03:47:11;18.20;;;15.33;;
11338;SDS011;5724;42.684;23.252;2023-12-07T03:49:57;21.43;;;17.80;;
11338;SDS011;5724;42.684;23.252;2023-12-07T03:52:43;19.47;;;16.70;;
11338;SDS011;5724;42.684;23.252;2023-12-07T03:55:29;21.50;;;17.30;;
11338;SDS011;5724;42.684;23.252;2023-12-07T03:58:15;19.17;;;16.87;;
11338;SDS011;5724;42.684;23.252;2023-12-07T04:01:00;19.83;;;17.33;;
11338;SDS011;5724;42.684;23.252;2023-12-07T04:03:46;20.30;;;17.20;;
11338;SDS011;5724;42.684;23.252;2023-12-07T04:06:32;18.73;;;16.73;;
11338;SDS011;5724;42.684;23.252;2023-12-07T04:09:18;17.17;;;15.03;;
11338;SDS011;5724;42.684;23.252;2023-12-07T04:12:04;16.27;;;14.43;;
11338;SDS011;5724;42.684;23.252;2023-12-07T04:14:50;18.80;;;16.03;;
11338;SDS011;5724;42.684;23.252;2023-12-07T04:17:39;19.60;;;16.73;;
11338;SDS011;5724;42.684;23.252;2023-12-07T04:20:25;19.97;;;16.10;;
11338;SDS011;5724;42.684;23.252;2023-12-07T04:23:11;18.53;;;16.27;;
11338;SDS011;5724;42.684;23.252;2023-12-07T04:25:57;15.57;;;13.73;;
11338;SDS011;5724;42.684;23.252;2023-12-07T04:28:43;17.47;;;15.50;;
11338;SDS011;5724;42.684;23.252;2023-12-07T04:31:29;17.90;;;15.67;;
11338;SDS011;5724;42.684;23.252;2023-12-07T04:34:14;18.23;;;16.00;;
11338;SDS011;5724;42.684;23.252;2023-12-07T04:37:00;19.10;;;16.57;;
11338;SDS011;5724;42.684;23.252;2023-12-07T04:39:46;21.27;;;16.50;;
11338;SDS011;5724;42.684;23.252;2023-12-07T04:42:32;17.57;;;15.67;;
11338;SDS011;5724;42.684;23.252;2023-12-07T04:45:18;18.10;;;16.10;;
11338;SDS011;5724;42.684;23.252;2023-12-07T04:48:04;18.17;;;16.27;;
11338;SDS011;5724;42.684;23.252;2023-12-07T04:50:50;18.53;;;16.57;;
11338;SDS011;5724;42.684;23.252;2023-12-07T04:53:36;19.43;;;16.70;;
11338;SDS011;5724;42.684;23.252;2023-12-07T04:56:21;18.63;;;16.73;;
11338;SDS011;5724;42.684;23.252;2023-12-07T04:59:08;17.33;;;15.43;;
11338;SDS011;5724;42.684;23.252;2023-12-07T05:01:55;16.60;;;14.90;;
11338;SDS011;5724;42.684;23.252;2023-12-07T05:04:41;15.30;;;13.80;;
11338;SDS011;5724;42.684;23.252;2023-12-07T05:07:27;15.90;;;14.40;;
11338;SDS011;5724;42.684;23.252;2023-12-07T05:10:12;18.43;;;16.50;;
11338;SDS011;5724;42.684;23.252;2023-12-07T05:12:58;20.07;;;17.87;;
11338;SDS011;5724;42.684;23.252;2023-12-07T05:15:44;17.83;;;16.00;;
11338;SDS011;5724;42.684;23.252;2023-12-07T05:18:32;18.47;;;16.47;;
11338;SDS011;5724;42.684;23.252;2023-12-07T05:21:17;19.13;;;15.50;;
11338;SDS011;5724;42.684;23.252;2023-12-07T05:24:03;17.00;;;15.20;;
11338;SDS011;5724;42.684;23.252;2023-12-07T05:26:49;18.77;;;15.27;;
11338;SDS011;5724;42.684;23.252;2023-12-07T05:29:35;17.50;;;15.63;;
11338;SDS011;5724;42.684;23.252;2023-12-07T05:32:21;17.43;;;14.87;;
11338;SDS011;5724;42.684;23.252;2023-12-07T05:35:07;17.93;;;15.17;;
11338;SDS011;5724;42.684;23.252;2023-12-07T05:37:53;21.37;;;17.47;;
11338;SDS011;5724;42.684;23.252;2023-12-07T05:40:39;17.17;;;15.33;;
11338;SDS011;5724;42.684;23.252;2023-12-07T05:43:25;17.93;;;15.63;;
11338;SDS011;5724;42.684;23.252;2023-12-07T05:46:11;18.13;;;15.83;;
11338;SDS011;5724;42.684;23.252;2023-12-07T05:48:57;18.80;;;15.90;;
11338;SDS011;5724;42.684;23.252;2023-12-07T05:51:44;18.70;;;15.27;;
11338;SDS011;5724;42.684;23.252;2023-12-07T05:54:30;17.47;;;15.57;;
11338;SDS011;5724;42.684;23.252;2023-12-07T05:57:17;17.70;;;15.90;;
11338;SDS011;5724;42.684;23.252;2023-12-07T06:00:03;16.00;;;14.30;;
11338;SDS011;5724;42.684;23.252;2023-12-07T06:02:53;16.77;;;14.50;;
11338;SDS011;5724;42.684;23.252;2023-12-07T06:05:39;20.23;;;15.67;;
11338;SDS011;5724;42.684;23.252;2023-12-07T06:08:25;16.77;;;15.07;;
11338;SDS011;5724;42.684;23.252;2023-12-07T06:11:12;18.00;;;16.20;;
11338;SDS011;5724;42.684;23.252;2023-12-07T06:13:58;14.63;;;13.23;;
11338;SDS011;5724;42.684;23.252;2023-12-07T06:16:45;18.63;;;14.57;;
11338;SDS011;5724;42.684;23.252;2023-12-07T06:19:31;22.53;;;20.13;;
11338;SDS011;5724;42.684;23.252;2023-12-07T06:22:17;14.63;;;13.23;;
11338;SDS011;5724;42.684;23.252;2023-12-07T06:25:03;16.03;;;13.77;;
11338;SDS011;5724;42.684;23.252;2023-12-07T06:27:49;20.37;;;15.53;;
11338;SDS011;5724;42.684;23.252;2023-12-07T06:30:35;12.73;;;11.33;;
11338;SDS011;5724;42.684;23.252;2023-12-07T06:33:21;16.20;;;13.53;;
11338;SDS011;5724;42.684;23.252;2023-12-07T06:36:07;15.40;;;13.90;;
11338;SDS011;5724;42.684;23.252;2023-12-07T06:38:53;16.13;;;11.80;;
11338;SDS011;5724;42.684;23.252;2023-12-07T06:41:40;13.73;;;11.87;;
11338;SDS011;5724;42.684;23.252;2023-12-07T06:44:26;15.07;;;13.67;;
11338;SDS011;5724;42.684;23.252;2023-12-07T06:47:12;16.17;;;14.47;;
11338;SDS011;5724;42.684;23.252;2023-12-07T06:49:58;19.67;;;16.77;;
11338;SDS011;5724;42.684;23.252;2023-12-07T06:52:44;23.23;;;19.13;;
11338;SDS011;5724;42.684;23.252;2023-12-07T06:55:30;23.53;;;19.47;;
11338;SDS011;5724;42.684;23.252;2023-12-07T06:58:16;18.97;;;16.37;;
11338;SDS011;5724;42.684;23.252;2023-12-07T07:01:02;12.77;;;10.53;;
11338;SDS011;5724;42.684;23.252;2023-12-07T07:03:47;17.50;;;15.40;;
11338;SDS011;5724;42.684;23.252;2023-12-07T07:06:33;14.90;;;13.30;;
11338;SDS011;5724;42.684;23.252;2023-12-07T07:09:19;11.40;;;10.37;;
11338;SDS011;5724;42.684;23.252;2023-12-07T07:12:06;13.73;;;12.43;;
11338;SDS011;5724;42.684;23.252;2023-12-07T07:14:52;13.03;;;11.63;;
11338;SDS011;5724;42.684;23.252;2023-12-07T07:17:39;14.90;;;12.33;;
11338;SDS011;5724;42.684;23.252;2023-12-07T07:20:25;20.07;;;16.27;;
11338;SDS011;5724;42.684;23.252;2023-12-07T07:23:11;18.70;;;16.70;;
11338;SDS011;5724;42.684;23.252;2023-12-07T07:25:57;15.33;;;13.70;;
11338;SDS011;5724;42.684;23.252;2023-12-07T07:28:43;14.60;;;12.80;;
11338;SDS011;5724;42.684;23.252;2023-12-07T07:31:29;12.00;;;10.80;;
11338;SDS011;5724;42.684;23.252;2023-12-07T07:34:15;13.53;;;12.13;;
11338;SDS011;5724;42.684;23.252;2023-12-07T07:37:02;15.60;;;14.00;;
11338;SDS011;5724;42.684;23.252;2023-12-07T07:39:48;13.93;;;12.63;;
11338;SDS011;5724;42.684;23.252;2023-12-07T07:42:34;12.37;;;11.20;;
11338;SDS011;5724;42.684;23.252;2023-12-07T07:45:20;11.70;;;10.70;;
11338;SDS011;5724;42.684;23.252;2023-12-07T07:48:05;10.57;;;9.57;;
11338;SDS011;5724;42.684;23.252;2023-12-07T07:50:51;11.43;;;10.47;;
11338;SDS011;5724;42.684;23.252;2023-12-07T07:53:37;8.37;;;7.50;;
11338;SDS011;5724;42.684;23.252;2023-12-07T07:56:23;7.03;;;6.43;;
11338;SDS011;5724;42.684;23.252;2023-12-07T07:59:09;7.67;;;7.07;;
11338;SDS011;5724;42.684;23.252;2023-12-07T08:01:55;6.13;;;5.63;;
11338;SDS011;5724;42.684;23.252;2023-12-07T08:04:41;7.53;;;6.83;;
11338;SDS011;5724;42.684;23.252;2023-12-07T08:07:27;8.60;;;7.03;;
11338;SDS011;5724;42.684;23.252;2023-12-07T08:10:13;9.87;;;6.90;;
11338;SDS011;5724;42.684;23.252;2023-12-07T08:12:59;8.37;;;7.67;;
11338;SDS011;5724;42.684;23.252;2023-12-07T08:15:44;7.10;;;6.47;;
11338;SDS011;5724;42.684;23.252;2023-12-07T08:18:30;7.30;;;6.63;;
11338;SDS011;5724;42.684;23.252;2023-12-07T08:21:22;6.03;;;5.53;;
11338;SDS011;5724;42.684;23.252;2023-12-07T08:24:09;6.73;;;6.23;;
11338;SDS011;5724;42.684;23.252;2023-12-07T08:26:56;6.40;;;6.00;;
11338;SDS011;5724;42.684;23.252;2023-12-07T08:29:42;6.33;;;5.93;;
11338;SDS011;5724;42.684;23.252;2023-12-07T08:32:28;5.73;;;5.23;;
11338;SDS011;5724;42.684;23.252;2023-12-07T08:35:14;4.63;;;4.40;;
11338;SDS011;5724;42.684;23.252;2023-12-07T08:38:00;6.43;;;5.87;;
11338;SDS011;5724;42.684;23.252;2023-12-07T08:40:46;5.00;;;4.70;;
11338;SDS011;5724;42.684;23.252;2023-12-07T08:43:33;4.37;;;4.17;;
11338;SDS011;5724;42.684;23.252;2023-12-07T08:46:19;3.03;;;2.90;;
11338;SDS011;5724;42.684;23.252;2023-12-07T08:49:05;3.70;;;3.50;;
11338;SDS011;5724;42.684;23.252;2023-12-07T08:51:51;4.57;;;4.27;;
11338;SDS011;5724;42.684;23.252;2023-12-07T08:54:38;3.30;;;3.10;;
11338;SDS011;5724;42.684;23.252;2023-12-07T08:57:24;4.43;;;4.17;;
11338;SDS011;5724;42.684;23.252;2023-12-07T09:00:09;3.10;;;3.00;;
11338;SDS011;5724;42.684;23.252;2023-12-07T09:02:58;4.23;;;4.03;;
11338;SDS011;5724;42.684;23.252;2023-12-07T09:05:44;2.63;;;2.47;;
11338;SDS011;5724;42.684;23.252;2023-12-07T09:08:29;3.07;;;2.87;;
11338;SDS011;5724;42.684;23.252;2023-12-07T09:11:16;2.23;;;2.10;;
11338;SDS011;5724;42.684;23.252;2023-12-07T09:14:02;3.10;;;2.90;;
11338;SDS011;5724;42.684;23.252;2023-12-07T09:16:48;2.97;;;2.77;;
11338;SDS011;5724;42.684;23.252;2023-12-07T09:19:34;2.13;;;2.03;;
11338;SDS011;5724;42.684;23.252;2023-12-07T09:22:20;2.40;;;2.30;;
11338;SDS011;5724;42.684;23.252;2023-12-07T09:25:06;3.47;;;3.27;;
11338;SDS011;5724;42.684;23.252;2023-12-07T09:27:55;2.67;;;2.57;;
11338;SDS011;5724;42.684;23.252;2023-12-07T09:30:41;4.07;;;3.87;;
11338;SDS011;5724;42.684;23.252;2023-12-07T09:33:27;3.23;;;3.03;;
11338;SDS011;5724;42.684;23.252;2023-12-07T09:36:16;3.07;;;2.43;;
11338;SDS011;5724;42.684;23.252;2023-12-07T09:39:03;3.10;;;1.97;;
11338;SDS011;5724;42.684;23.252;2023-12-07T09:41:50;1.80;;;1.73;;
11338;SDS011;5724;42.684;23.252;2023-12-07T09:44:36;1.80;;;1.70;;
11338;SDS011;5724;42.684;23.252;2023-12-07T09:47:21;5.83;;;2.70;;
11338;SDS011;5724;42.684;23.252;2023-12-07T09:50:07;2.53;;;2.43;;
11338;SDS011;5724;42.684;23.252;2023-12-07T09:52:55;2.20;;;2.10;;
11338;SDS011;5724;42.684;23.252;2023-12-07T09:55:43;3.87;;;2.60;;
11338;SDS011;5724;42.684;23.252;2023-12-07T09:58:28;2.57;;;2.47;;
11338;SDS011;5724;42.684;23.252;2023-12-07T10:01:14;3.43;;;2.30;;
11338;SDS011;5724;42.684;23.252;2023-12-07T10:07:08;1.67;;;1.20;;
11338;SDS011;5724;42.684;23.252;2023-12-07T10:09:54;1.50;;;1.50;;
11338;SDS011;5724;42.684;23.252;2023-12-07T10:15:44;2.83;;;2.63;;
11338;SDS011;5724;42.684;23.252;2023-12-07T10:18:29;1.70;;;1.60;;
11338;SDS011;5724;42.684;23.252;2023-12-07T10:21:15;2.60;;;2.40;;
11338;SDS011;5724;42.684;23.252;2023-12-07T10:24:01;1.50;;;1.40;;
11338;SDS011;5724;42.684;23.252;2023-12-07T10:26:48;3.73;;;1.80;;
11338;SDS011;5724;42.684;23.252;2023-12-07T10:29:35;6.17;;;2.20;;
11338;SDS011;5724;42.684;23.252;2023-12-07T10:32:21;1.90;;;1.80;;
11338;SDS011;5724;42.684;23.252;2023-12-07T10:35:07;2.30;;;2.20;;
11338;SDS011;5724;42.684;23.252;2023-12-07T10:37:55;2.60;;;2.40;;
11338;SDS011;5724;42.684;23.252;2023-12-07T10:40:41;2.27;;;2.17;;
11338;SDS011;5724;42.684;23.252;2023-12-07T10:43:27;1.73;;;1.63;;
11338;SDS011;5724;42.684;23.252;2023-12-07T10:46:14;2.93;;;2.73;;
11338;SDS011;5724;42.684;23.252;2023-12-07T10:49:04;2.10;;;2.00;;
11338;SDS011;5724;42.684;23.252;2023-12-07T10:55:07;1.77;;;1.67;;
11338;SDS011;5724;42.684;23.252;2023-12-07T10:57:58;1.87;;;1.77;;
11338;SDS011;5724;42.684;23.252;2023-12-07T11:00:46;1.87;;;1.77;;
11338;SDS011;5724;42.684;23.252;2023-12-07T11:03:32;2.70;;;2.60;;
11338;SDS011;5724;42.684;23.252;2023-12-07T11:06:18;4.40;;;4.00;;
11338;SDS011;5724;42.684;23.252;2023-12-07T11:09:07;2.80;;;2.70;;
11338;SDS011;5724;42.684;23.252;2023-12-07T11:12:05;2.60;;;2.50;;
11338;SDS011;5724;42.684;23.252;2023-12-07T11:15:01;2.90;;;2.70;;
11338;SDS011;5724;42.684;23.252;2023-12-07T11:17:51;2.40;;;2.30;;
11338;SDS011;5724;42.684;23.252;2023-12-07T11:20:42;2.10;;;2.00;;
11338;SDS011;5724;42.684;23.252;2023-12-07T11:23:31;2.33;;;2.23;;
11338;SDS011;5724;42.684;23.252;2023-12-07T11:26:19;1.90;;;1.80;;
11338;SDS011;5724;42.684;23.252;2023-12-07T11:29:06;2.47;;;2.37;;
11338;SDS011;5724;42.684;23.252;2023-12-07T11:31:52;1.50;;;1.50;;
11338;SDS011;5724;42.684;23.252;2023-12-07T11:34:42;2.40;;;2.20;;
11338;SDS011;5724;42.684;23.252;2023-12-07T11:37:31;3.83;;;2.00;;
11338;SDS011;5724;42.684;23.252;2023-12-07T11:40:56;2.60;;;2.40;;
11338;SDS011;5724;42.684;23.252;2023-12-07T11:43:44;2.33;;;2.23;;
11338;SDS011;5724;42.684;23.252;2023-12-07T11:46:30;4.30;;;3.40;;
11338;SDS011;5724;42.684;23.252;2023-12-07T11:49:16;3.50;;;3.30;;
11338;SDS011;5724;42.684;23.252;2023-12-07T11:52:16;3.60;;;3.40;;
11338;SDS011;5724;42.684;23.252;2023-12-07T11:55:03;3.70;;;3.37;;
11338;SDS011;5724;42.684;23.252;2023-12-07T11:57:50;10.83;;;3.10;;
11338;SDS011;5724;42.684;23.252;2023-12-07T12:00:36;5.73;;;2.53;;
11338;SDS011;5724;42.684;23.252;2023-12-07T12:03:22;2.73;;;2.53;;
11338;SDS011;5724;42.684;23.252;2023-12-07T12:06:12;5.77;;;2.50;;
11338;SDS011;5724;42.684;23.252;2023-12-07T12:08:58;2.20;;;2.10;;
11338;SDS011;5724;42.684;23.252;2023-12-07T12:11:44;3.30;;;2.53;;
11338;SDS011;5724;42.684;23.252;2023-12-07T12:14:33;2.30;;;2.20;;
11338;SDS011;5724;42.684;23.252;2023-12-07T12:17:18;2.77;;;2.63;;
11338;SDS011;5724;42.684;23.252;2023-12-07T12:20:05;2.50;;;2.40;;
11338;SDS011;5724;42.684;23.252;2023-12-07T12:22:51;3.07;;;2.87;;
11338;SDS011;5724;42.684;23.252;2023-12-07T12:25:40;3.57;;;2.90;;
11338;SDS011;5724;42.684;23.252;2023-12-07T12:28:27;3.20;;;2.90;;
11338;SDS011;5724;42.684;23.252;2023-12-07T12:31:14;4.80;;;4.13;;
11338;SDS011;5724;42.684;23.252;2023-12-07T12:34:05;3.23;;;3.10;;
11338;SDS011;5724;42.684;23.252;2023-12-07T12:36:55;3.10;;;2.87;;
11338;SDS011;5724;42.684;23.252;2023-12-07T12:39:41;2.93;;;2.73;;
11338;SDS011;5724;42.684;23.252;2023-12-07T12:42:27;3.30;;;3.10;;
11338;SDS011;5724;42.684;23.252;2023-12-07T12:45:13;3.00;;;2.90;;
11338;SDS011;5724;42.684;23.252;2023-12-07T12:48:00;3.60;;;3.27;;
11338;SDS011;5724;42.684;23.252;2023-12-07T12:50:46;3.43;;;3.13;;
11338;SDS011;5724;42.684;23.252;2023-12-07T12:53:31;2.90;;;2.80;;
11338;SDS011;5724;42.684;23.252;2023-12-07T12:56:18;3.43;;;3.27;;
11338;SDS011;5724;42.684;23.252;2023-12-07T12:59:06;4.60;;;4.30;;
11338;SDS011;5724;42.684;23.252;2023-12-07T13:01:54;4.20;;;3.97;;
11338;SDS011;5724;42.684;23.252;2023-12-07T13:04:40;3.60;;;3.40;;
11338;SDS011;5724;42.684;23.252;2023-12-07T13:07:26;3.40;;;3.20;;
11338;SDS011;5724;42.684;23.252;2023-12-07T13:10:11;3.50;;;3.30;;
11338;SDS011;5724;42.684;23.252;2023-12-07T13:12:57;3.10;;;3.00;;
11338;SDS011;5724;42.684;23.252;2023-12-07T13:15:43;3.63;;;3.47;;
11338;SDS011;5724;42.684;23.252;2023-12-07T13:18:29;3.00;;;2.80;;
11338;SDS011;5724;42.684;23.252;2023-12-07T13:21:15;3.20;;;3.10;;
11338;SDS011;5724;42.684;23.252;2023-12-07T13:24:01;3.93;;;3.73;;
11338;SDS011;5724;42.684;23.252;2023-12-07T13:26:50;3.83;;;3.60;;
11338;SDS011;5724;42.684;23.252;2023-12-07T13:29:35;5.07;;;3.83;;
11338;SDS011;5724;42.684;23.252;2023-12-07T13:32:22;4.43;;;4.13;;
11338;SDS011;5724;42.684;23.252;2023-12-07T13:35:09;4.57;;;4.37;;
11338;SDS011;5724;42.684;23.252;2023-12-07T13:37:55;4.40;;;4.10;;
11338;SDS011;5724;42.684;23.252;2023-12-07T13:40:41;4.37;;;4.13;;
11338;SDS011;5724;42.684;23.252;2023-12-07T13:43:27;4.97;;;4.57;;
11338;SDS011;5724;42.684;23.252;2023-12-07T13:46:13;5.77;;;5.47;;
11338;SDS011;5724;42.684;23.252;2023-12-07T13:48:59;5.43;;;5.07;;
11338;SDS011;5724;42.684;23.252;2023-12-07T13:51:44;6.67;;;4.50;;
11338;SDS011;5724;42.684;23.252;2023-12-07T13:54:31;5.20;;;4.80;;
11338;SDS011;5724;42.684;23.252;2023-12-07T13:57:18;2.90;;;2.80;;
11338;SDS011;5724;42.684;23.252;2023-12-07T14:00:05;4.43;;;4.03;;
11338;SDS011;5724;42.684;23.252;2023-12-07T14:02:52;2.93;;;2.83;;
11338;SDS011;5724;42.684;23.252;2023-12-07T14:05:38;4.20;;;3.77;;
11338;SDS011;5724;42.684;23.252;2023-12-07T14:08:27;5.30;;;3.33;;
11338;SDS011;5724;42.684;23.252;2023-12-07T14:11:12;3.90;;;3.70;;
11338;SDS011;5724;42.684;23.252;2023-12-07T14:13:58;1.63;;;1.63;;
11338;SDS011;5724;42.684;23.252;2023-12-07T14:16:45;3.50;;;2.57;;
11338;SDS011;5724;42.684;23.252;2023-12-07T14:19:31;3.67;;;3.37;;
11338;SDS011;5724;42.684;23.252;2023-12-07T14:22:16;2.50;;;2.40;;
11338;SDS011;5724;42.684;23.252;2023-12-07T14:25:02;3.60;;;3.30;;
11338;SDS011;5724;42.684;23.252;2023-12-07T14:27:50;9.70;;;8.80;;
11338;SDS011;5724;42.684;23.252;2023-12-07T14:30:36;11.87;;;10.10;;
11338;SDS011;5724;42.684;23.252;2023-12-07T14:33:25;10.73;;;9.73;;
11338;SDS011;5724;42.684;23.252;2023-12-07T14:36:11;10.30;;;9.30;;
11338;SDS011;5724;42.684;23.252;2023-12-07T14:38:57;11.00;;;10.00;;
11338;SDS011;5724;42.684;23.252;2023-12-07T14:41:44;14.17;;;10.03;;
11338;SDS011;5724;42.684;23.252;2023-12-07T14:44:32;10.93;;;9.83;;
11338;SDS011;5724;42.684;23.252;2023-12-07T14:47:18;4.10;;;3.73;;
11338;SDS011;5724;42.684;23.252;2023-12-07T14:50:05;10.13;;;4.93;;
11338;SDS011;5724;42.684;23.252;2023-12-07T14:52:51;3.47;;;3.27;;
11338;SDS011;5724;42.684;23.252;2023-12-07T14:55:37;6.00;;;5.47;;
11338;SDS011;5724;42.684;23.252;2023-12-07T14:58:23;3.43;;;3.23;;
11338;SDS011;5724;42.684;23.252;2023-12-07T15:01:10;6.20;;;5.60;;
11338;SDS011;5724;42.684;23.252;2023-12-07T15:03:56;3.20;;;2.93;;
11338;SDS011;5724;42.684;23.252;2023-12-07T15:06:43;4.90;;;4.43;;
11338;SDS011;5724;42.684;23.252;2023-12-07T15:09:28;4.63;;;4.23;;
11338;SDS011;5724;42.684;23.252;2023-12-07T15:12:15;5.00;;;4.70;;
11338;SDS011;5724;42.684;23.252;2023-12-07T15:15:04;13.00;;;11.70;;
11338;SDS011;5724;42.684;23.252;2023-12-07T15:17:51;12.63;;;11.53;;
11338;SDS011;5724;42.684;23.252;2023-12-07T15:20:38;13.47;;;12.07;;
11338;SDS011;5724;42.684;23.252;2023-12-07T15:23:23;12.93;;;11.63;;
11338;SDS011;5724;42.684;23.252;2023-12-07T15:26:09;11.57;;;10.57;;
11338;SDS011;5724;42.684;23.252;2023-12-07T15:28:55;11.77;;;10.67;;
11338;SDS011;5724;42.684;23.252;2023-12-07T15:31:41;12.47;;;11.37;;
11338;SDS011;5724;42.684;23.252;2023-12-07T15:34:29;11.17;;;10.17;;
11338;SDS011;5724;42.684;23.252;2023-12-07T15:37:14;4.67;;;4.30;;
11338;SDS011;5724;42.684;23.252;2023-12-07T15:40:02;3.27;;;3.07;;
11338;SDS011;5724;42.684;23.252;2023-12-07T15:42:49;2.00;;;1.97;;
11338;SDS011;5724;42.684;23.252;2023-12-07T15:45:35;1.77;;;1.63;;
11338;SDS011;5724;42.684;23.252;2023-12-07T15:48:21;4.73;;;4.37;;
11338;SDS011;5724;42.684;23.252;2023-12-07T15:51:07;3.40;;;3.10;;
11338;SDS011;5724;42.684;23.252;2023-12-07T15:53:52;3.23;;;3.00;;
11338;SDS011;5724;42.684;23.252;2023-12-07T15:56:39;11.30;;;10.27;;
11338;SDS011;5724;42.684;23.252;2023-12-07T15:59:25;13.30;;;11.90;;
11338;SDS011;5724;42.684;23.252;2023-12-07T16:02:11;13.73;;;12.53;;
11338;SDS011;5724;42.684;23.252;2023-12-07T16:04:57;13.23;;;11.80;;
11338;SDS011;5724;42.684;23.252;2023-12-07T16:07:43;13.67;;;12.40;;
11338;SDS011;5724;42.684;23.252;2023-12-07T16:10:29;11.73;;;10.63;;
11338;SDS011;5724;42.684;23.252;2023-12-07T16:13:15;13.07;;;11.97;;
11338;SDS011;5724;42.684;23.252;2023-12-07T16:16:01;11.27;;;10.27;;
11338;SDS011;5724;42.684;23.252;2023-12-07T16:18:47;11.60;;;10.60;;
11338;SDS011;5724;42.684;23.252;2023-12-07T16:21:34;5.50;;;4.53;;
11338;SDS011;5724;42.684;23.252;2023-12-07T16:24:23;5.23;;;4.73;;
11338;SDS011;5724;42.684;23.252;2023-12-07T16:27:09;6.13;;;5.63;;
11338;SDS011;5724;42.684;23.252;2023-12-07T16:29:55;3.60;;;3.30;;
11338;SDS011;5724;42.684;23.252;2023-12-07T16:32:41;4.20;;;3.90;;
11338;SDS011;5724;42.684;23.252;2023-12-07T16:35:29;3.87;;;3.57;;
11338;SDS011;5724;42.684;23.252;2023-12-07T16:38:15;2.30;;;2.20;;
11338;SDS011;5724;42.684;23.252;2023-12-07T16:41:01;2.50;;;2.40;;
11338;SDS011;5724;42.684;23.252;2023-12-07T16:43:47;2.53;;;2.30;;